Terminal Aerodrome Forecast
Issued by NWS

Home | Current Version | Previous Version | Text Only | Print | Product List | Glossary Off
Versions: 1 2 3 4 5 6 7 8 9 10 11 12 13 14 15 16 17 18

000
FTUS43 KABR 111400 AAB
TAFATY
TAF AMD
KATY 111448Z 1115/1212 20009KT P6SM FEW050
      TEMPO 1115/1117 BKN020
     FM111800 02007KT P6SM SCT060
     FM120100 VRB03KT P6SM BKN200
     FM120800 VRB03KT P6SM VCSH OVC070=

USA.gov is the U.S. government's official web portal to all federal, state and local government web resources and services.